Time;durP1;ratioP1;P1;durP2;ratioP2;P2;SDS_P1;SDS_P2;PMS_P1;PMS_P2;Temp;Humidity;BMP_temperature;BMP_pressure;BME280_temperature;BME280_humidity;BME280_pressure;Samples;Min_cycle;Max_cycle;Signal;HPM_P1;HPM_P2
2023/03/08 00:01:22;;;;;;;2.90;2.13;;;5.30;98.00;;;;;;5071723;28;20476;-67
2023/03/08 00:03:52;;;;;;;3.53;2.20;;;5.30;98.00;;;;;;5071730;28;20460;-67
2023/03/08 00:06:20;;;;;;;2.80;2.20;;;5.30;98.00;;;;;;5071703;28;21000;-68
2023/03/08 00:08:48;;;;;;;1.90;1.83;;;5.20;98.00;;;;;;5071665;28;20517;-67
2023/03/08 00:11:17;;;;;;;2.00;1.87;;;5.20;98.00;;;;;;5071734;28;20492;-67
2023/03/08 00:13:44;;;;;;;2.80;2.00;;;5.10;98.00;;;;;;5071718;28;20951;-67
2023/03/08 00:16:15;;;;;;;3.10;2.07;;;5.10;98.00;;;;;;5071749;28;20463;-68
2023/03/08 00:18:42;;;;;;;5.50;2.53;;;5.20;98.00;;;;;;5071380;28;20491;-67
2023/03/08 00:21:11;;;;;;;4.50;2.60;;;5.10;98.00;;;;;;5070404;28;20459;-67
2023/03/08 00:23:38;;;;;;;3.73;1.90;;;5.10;98.00;;;;;;5071397;28;20456;-67
2023/03/08 00:26:06;;;;;;;3.30;2.07;;;5.10;98.00;;;;;;5071481;28;20460;-67
2023/03/08 00:28:34;;;;;;;2.63;1.80;;;5.10;98.00;;;;;;5071255;28;20859;-68
2023/03/08 00:31:03;;;;;;;3.13;2.00;;;5.20;98.00;;;;;;5071326;28;20846;-68
2023/03/08 00:33:32;;;;;;;3.40;2.20;;;5.20;98.00;;;;;;5071281;28;20461;-67
2023/03/08 00:36:01;;;;;;;3.47;2.20;;;5.20;98.00;;;;;;5071351;28;20551;-67
2023/03/08 00:38:30;;;;;;;3.50;2.40;;;5.30;98.00;;;;;;5071113;28;20467;-67
2023/03/08 00:40:57;;;;;;;6.40;2.60;;;5.30;98.00;;;;;;5071295;28;20456;-67
2023/03/08 00:43:25;;;;;;;3.17;2.20;;;5.30;98.00;;;;;;5071223;28;20487;-67
2023/03/08 00:45:52;;;;;;;2.83;2.00;;;5.20;98.00;;;;;;5071206;28;20793;-67
2023/03/08 00:48:19;;;;;;;4.00;1.93;;;5.20;98.00;;;;;;5071133;28;20456;-67
2023/03/08 00:50:48;;;;;;;3.23;2.13;;;5.30;98.00;;;;;;5071059;28;20482;-67
2023/03/08 00:53:15;;;;;;;2.40;2.20;;;5.20;98.00;;;;;;5071173;28;20474;-67
2023/03/08 00:55:49;;;;;;;3.67;1.83;;;5.20;98.00;;;;;;5071473;28;20466;-68
2023/03/08 00:58:16;;;;;;;2.60;1.73;;;5.20;98.00;;;;;;5071409;28;20463;-67
2023/03/08 01:00:49;;;;;;;2.70;2.17;;;5.20;98.00;;;;;;5071143;28;20501;-67
2023/03/08 01:03:17;;;;;;;4.63;2.37;;;5.20;98.00;;;;;;5070931;28;20475;-67
2023/03/08 01:05:48;;;;;;;2.10;1.63;;;5.10;98.00;;;;;;5070961;28;20981;-67
2023/03/08 01:08:17;;;;;;;4.30;2.13;;;5.10;98.00;;;;;;5071017;28;20996;-67
2023/03/08 01:10:47;;;;;;;3.67;2.37;;;5.20;98.00;;;;;;5070889;28;20487;-67
2023/03/08 01:13:14;;;;;;;2.77;1.90;;;5.10;98.00;;;;;;5070890;28;20987;-68
2023/03/08 01:15:41;;;;;;;4.83;3.03;;;5.10;98.00;;;;;;5070818;28;20471;-67
2023/03/08 01:18:11;;;;;;;5.70;2.90;;;5.10;98.00;;;;;;5071095;28;20878;-67
2023/03/08 01:20:38;;;;;;;2.40;1.90;;;5.00;98.00;;;;;;5071030;28;20452;-68
2023/03/08 01:23:08;;;;;;;1.63;1.40;;;5.00;98.00;;;;;;5070767;28;20456;-67
2023/03/08 01:25:35;;;;;;;3.57;2.20;;;5.00;98.00;;;;;;5070791;28;20969;-68
2023/03/08 01:28:03;;;;;;;3.07;2.27;;;5.00;98.00;;;;;;5070892;28;20460;-67
2023/03/08 01:30:30;;;;;;;2.67;1.90;;;5.00;98.00;;;;;;5070653;28;20488;-67
2023/03/08 01:32:57;;;;;;;5.47;2.60;;;5.10;98.00;;;;;;5070815;28;20519;-68
2023/03/08 01:35:24;;;;;;;4.30;1.93;;;5.10;98.00;;;;;;5069617;28;20459;-67
2023/03/08 01:37:53;;;;;;;4.93;2.57;;;5.10;98.00;;;;;;5070726;28;20457;-68
2023/03/08 01:40:25;;;;;;;4.13;2.33;;;5.10;98.00;;;;;;5070664;28;20494;-68
2023/03/08 01:42:52;;;;;;;4.67;2.40;;;5.10;98.00;;;;;;5070542;28;20472;-67
2023/03/08 01:46:08;;;;;;;4.90;2.37;;;5.00;98.00;;;;;;5070039;28;21011;-67
2023/03/08 01:48:40;;;;;;;2.10;1.97;;;5.00;98.00;;;;;;5012140;28;20461;-67
2023/03/08 01:51:11;;;;;;;3.57;2.13;;;5.10;98.00;;;;;;5061707;28;21004;-68
2023/03/08 01:53:40;;;;;;;3.70;1.87;;;5.10;98.00;;;;;;5074450;28;20456;-67
2023/03/08 01:56:15;;;;;;;5.20;2.60;;;5.10;98.00;;;;;;5073510;28;20453;-67
2023/03/08 01:58:45;;;;;;;4.23;2.50;;;5.20;98.00;;;;;;5074469;28;20449;-67
2023/03/08 02:01:12;;;;;;;2.87;2.13;;;5.20;98.00;;;;;;5074070;28;21018;-67
2023/03/08 02:03:40;;;;;;;3.80;2.53;;;5.20;98.00;;;;;;5073821;28;20521;-67
2023/03/08 02:06:08;;;;;;;3.73;2.07;;;5.20;98.00;;;;;;5073847;28;20474;-67
2023/03/08 02:08:36;;;;;;;5.40;2.17;;;5.00;98.00;;;;;;5073765;28;20533;-68
2023/03/08 02:11:03;;;;;;;5.53;2.50;;;5.10;98.00;;;;;;5073250;28;20484;-68
2023/03/08 02:13:32;;;;;;;5.83;1.90;;;5.00;98.00;;;;;;5073573;28;20457;-68
2023/03/08 02:16:00;;;;;;;4.23;2.20;;;5.00;98.00;;;;;;5073592;28;20464;-67
2023/03/08 02:18:27;;;;;;;5.20;2.50;;;5.00;98.00;;;;;;5073347;28;20941;-67
2023/03/08 02:20:55;;;;;;;2.20;2.00;;;4.90;98.00;;;;;;5072432;28;20944;-68
2023/03/08 02:23:25;;;;;;;4.67;3.00;;;4.90;98.00;;;;;;5073415;28;20470;-67
2023/03/08 02:25:55;;;;;;;2.80;2.17;;;4.90;98.00;;;;;;5073437;28;20452;-67
2023/03/08 02:28:24;;;;;;;6.57;2.47;;;4.80;98.00;;;;;;5073251;28;20482;-67
2023/03/08 02:30:51;;;;;;;3.37;2.60;;;5.00;98.00;;;;;;5073273;28;20488;-68
2023/03/08 02:33:19;;;;;;;2.50;1.70;;;5.10;98.00;;;;;;5071762;28;20464;-67
2023/03/08 02:35:46;;;;;;;4.90;3.20;;;5.10;98.00;;;;;;5073225;28;20465;-68
2023/03/08 02:38:16;;;;;;;3.23;2.10;;;5.10;98.00;;;;;;5073383;28;20463;-68
2023/03/08 02:40:50;;;;;;;4.07;2.60;;;5.30;98.00;;;;;;5073450;28;20743;-68
2023/03/08 02:43:17;;;;;;;4.70;2.40;;;5.20;98.00;;;;;;5072916;28;20455;-67
2023/03/08 02:45:45;;;;;;;4.13;2.13;;;5.10;98.00;;;;;;5073248;28;20987;-68
2023/03/08 02:48:12;;;;;;;5.00;2.40;;;5.00;98.00;;;;;;5073071;28;20453;-68
2023/03/08 02:50:40;;;;;;;3.10;2.20;;;5.00;98.00;;;;;;5072851;28;20482;-68
2023/03/08 02:53:08;;;;;;;3.90;2.73;;;5.00;98.00;;;;;;5072169;28;20797;-67
2023/03/08 02:55:36;;;;;;;5.23;2.30;;;5.10;98.00;;;;;;5072951;28;20464;-68
2023/03/08 02:58:07;;;;;;;2.23;2.03;;;5.10;98.00;;;;;;5072983;28;20976;-68
2023/03/08 03:00:34;;;;;;;3.43;2.23;;;5.10;98.00;;;;;;5072666;28;20770;-68
2023/03/08 03:03:01;;;;;;;3.77;2.30;;;5.20;98.00;;;;;;5072608;28;20454;-69
2023/03/08 03:05:28;;;;;;;3.00;2.07;;;5.10;98.00;;;;;;5071458;28;20467;-68
2023/03/08 03:07:57;;;;;;;3.80;2.60;;;5.00;98.00;;;;;;5072498;28;20469;-68
2023/03/08 03:10:24;;;;;;;5.00;2.60;;;5.00;98.00;;;;;;5072531;28;20479;-68
2023/03/08 03:12:51;;;;;;;2.80;1.87;;;5.00;98.00;;;;;;5072473;28;21022;-68
2023/03/08 03:15:20;;;;;;;4.70;2.30;;;5.00;98.00;;;;;;5072317;28;20478;-68
2023/03/08 03:17:48;;;;;;;2.23;2.00;;;4.90;98.00;;;;;;5072522;28;20462;-68
2023/03/08 03:20:15;;;;;;;4.40;2.30;;;5.00;98.00;;;;;;5072328;28;20464;-68
2023/03/08 03:22:43;;;;;;;5.20;2.37;;;4.90;98.00;;;;;;5072312;28;21015;-68
2023/03/08 03:25:11;;;;;;;2.93;2.07;;;4.80;98.00;;;;;;5072143;28;20453;-68
2023/03/08 03:27:38;;;;;;;2.80;2.20;;;4.70;98.00;;;;;;5072079;28;20830;-68
2023/03/08 03:30:07;;;;;;;3.33;2.23;;;4.90;98.00;;;;;;5072218;28;20451;-67
2023/03/08 03:32:35;;;;;;;4.33;2.03;;;4.90;98.00;;;;;;5070858;28;20457;-67
2023/03/08 03:35:05;;;;;;;3.83;1.67;;;4.80;98.00;;;;;;5072179;28;20461;-67
2023/03/08 03:37:34;;;;;;;4.90;2.33;;;4.70;98.00;;;;;;5070914;28;20458;-67
2023/03/08 03:40:01;;;;;;;5.10;2.43;;;4.70;98.00;;;;;;5070904;28;20464;-67
2023/03/08 03:42:28;;;;;;;3.77;2.30;;;4.70;98.00;;;;;;5071772;28;20468;-67
2023/03/08 03:44:55;;;;;;;12.83;2.60;;;4.90;98.00;;;;;;5070531;28;20466;-67
2023/03/08 03:47:22;;;;;;;3.23;2.57;;;4.90;98.00;;;;;;5072042;28;20457;-67
2023/03/08 03:49:51;;;;;;;3.53;2.40;;;4.70;98.00;;;;;;5071821;28;20456;-67
2023/03/08 03:52:19;;;;;;;7.83;2.60;;;4.70;98.00;;;;;;5072009;28;20578;-67
2023/03/08 03:54:46;;;;;;;5.53;2.23;;;4.70;98.00;;;;;;5071752;28;20464;-67
2023/03/08 03:57:14;;;;;;;3.63;2.43;;;4.60;98.00;;;;;;5070407;28;20466;-67
2023/03/08 03:59:41;;;;;;;7.23;2.87;;;4.60;98.00;;;;;;5071619;28;20973;-67
2023/03/08 04:02:12;;;;;;;4.27;2.37;;;4.60;98.00;;;;;;5071665;28;20476;-67
2023/03/08 04:04:39;;;;;;;4.00;2.40;;;4.60;98.00;;;;;;5070153;28;20521;-67
2023/03/08 04:07:09;;;;;;;4.40;2.27;;;4.60;98.00;;;;;;5071719;28;20838;-67
2023/03/08 04:09:39;;;;;;;6.37;2.40;;;4.60;98.00;;;;;;5070804;28;20946;-67
2023/03/08 04:12:06;;;;;;;3.43;2.10;;;4.60;98.00;;;;;;5071298;28;20484;-67
2023/03/08 04:14:33;;;;;;;4.87;2.57;;;4.70;98.00;;;;;;5071282;28;20974;-67
2023/03/08 04:17:00;;;;;;;2.40;1.73;;;4.70;98.00;;;;;;5070006;28;20460;-67
2023/03/08 04:19:27;;;;;;;4.93;2.13;;;4.80;98.00;;;;;;5071032;28;20956;-67
2023/03/08 04:21:54;;;;;;;2.90;2.00;;;4.70;98.00;;;;;;5070025;28;20465;-67
2023/03/08 04:24:23;;;;;;;8.30;2.30;;;4.60;98.00;;;;;;5071034;28;20946;-67
2023/03/08 04:26:52;;;;;;;3.37;1.70;;;4.60;98.00;;;;;;5071021;28;20488;-67
2023/03/08 04:29:20;;;;;;;3.70;2.00;;;4.50;98.00;;;;;;5070058;28;20532;-67
2023/03/08 04:31:47;;;;;;;3.97;2.40;;;4.50;98.00;;;;;;5070844;28;20482;-67
2023/03/08 04:34:14;;;;;;;3.17;2.30;;;4.40;98.00;;;;;;5070963;28;20478;-67
2023/03/08 04:36:41;;;;;;;3.40;1.90;;;4.30;98.00;;;;;;5070948;28;20457;-67
2023/03/08 04:39:08;;;;;;;3.13;1.90;;;4.20;98.00;;;;;;5071082;28;20948;-67
2023/03/08 04:41:37;;;;;;;2.27;1.97;;;4.30;98.00;;;;;;5069825;28;20512;-67
2023/03/08 04:44:04;;;;;;;2.73;1.67;;;4.30;98.00;;;;;;5071528;28;20479;-67
2023/03/08 04:46:31;;;;;;;3.30;1.97;;;4.20;98.00;;;;;;5069956;28;20460;-67
2023/03/08 04:48:58;;;;;;;4.13;2.23;;;4.10;98.00;;;;;;5069850;28;20455;-67
2023/03/08 04:51:26;;;;;;;2.60;1.80;;;4.00;98.00;;;;;;5071288;28;20485;-67
2023/03/08 04:53:54;;;;;;;2.70;2.10;;;3.90;98.00;;;;;;5072171;28;20944;-67
2023/03/08 04:56:25;;;;;;;2.80;2.13;;;4.00;98.00;;;;;;5071693;28;20466;-67
2023/03/08 04:58:55;;;;;;;10.43;2.83;;;4.20;98.00;;;;;;5072051;28;20490;-66
2023/03/08 05:01:23;;;;;;;3.63;1.93;;;4.20;98.00;;;;;;5071069;28;20467;-67
2023/03/08 05:03:52;;;;;;;3.80;2.30;;;4.20;98.00;;;;;;5070945;28;20461;-67
2023/03/08 05:06:20;;;;;;;4.70;2.20;;;4.20;98.00;;;;;;5071181;28;20453;-67
2023/03/08 05:08:48;;;;;;;3.60;3.27;;;4.30;98.00;;;;;;5070804;28;20984;-66
2023/03/08 05:11:19;;;;;;;3.43;2.30;;;4.50;98.00;;;;;;5071052;28;20484;-67
2023/03/08 05:13:46;;;;;;;7.10;3.20;;;4.40;98.00;;;;;;5071113;28;20460;-66
2023/03/08 05:16:15;;;;;;;6.53;2.80;;;4.40;98.00;;;;;;5069409;28;20958;-66
2023/03/08 05:18:43;;;;;;;2.90;2.40;;;4.30;98.00;;;;;;5071258;28;20463;-66
2023/03/08 05:21:14;;;;;;;4.00;2.20;;;4.40;98.00;;;;;;5072952;28;20463;-66
2023/03/08 05:23:41;;;;;;;4.80;2.60;;;4.40;98.00;;;;;;5074391;28;20449;-67
2023/03/08 05:26:10;;;;;;;4.03;2.73;;;4.40;98.00;;;;;;5074594;28;20880;-67
2023/03/08 05:28:37;;;;;;;4.37;2.00;;;4.60;98.00;;;;;;5074725;28;20971;-67
2023/03/08 05:31:06;;;;;;;4.27;2.30;;;4.70;98.00;;;;;;5074452;28;20466;-66
2023/03/08 05:33:35;;;;;;;6.93;2.23;;;4.70;98.00;;;;;;5074499;28;20459;-66
2023/03/08 05:36:03;;;;;;;3.00;2.27;;;4.70;98.00;;;;;;5074314;28;20470;-67
2023/03/08 05:38:30;;;;;;;5.10;2.23;;;4.60;98.00;;;;;;5056433;28;20470;-66
2023/03/08 05:41:00;;;;;;;6.47;2.60;;;4.70;98.00;;;;;;5074198;28;20469;-67
2023/03/08 05:43:27;;;;;;;4.43;3.17;;;4.60;98.00;;;;;;5074360;28;20557;-66
2023/03/08 05:45:56;;;;;;;5.70;2.73;;;4.50;98.00;;;;;;5074149;28;20458;-67
2023/03/08 05:48:23;;;;;;;2.93;2.40;;;4.50;98.00;;;;;;5073142;28;20460;-68
2023/03/08 05:50:53;;;;;;;2.60;1.93;;;4.50;98.00;;;;;;5074188;28;20837;-67
2023/03/08 05:53:20;;;;;;;2.40;1.93;;;4.40;98.00;;;;;;5073104;28;20452;-67
2023/03/08 05:55:48;;;;;;;2.43;2.20;;;4.50;98.00;;;;;;5072979;28;20463;-66
2023/03/08 05:58:16;;;;;;;3.20;2.20;;;4.50;98.00;;;;;;5074096;28;20490;-67
2023/03/08 06:00:43;;;;;;;3.20;2.13;;;4.50;98.00;;;;;;5073512;28;20453;-67
2023/03/08 06:03:11;;;;;;;5.57;2.00;;;4.50;98.00;;;;;;5072691;28;20502;-67
2023/03/08 06:05:38;;;;;;;2.70;2.20;;;4.50;98.00;;;;;;5072500;28;20461;-67
2023/03/08 06:08:07;;;;;;;4.53;2.53;;;4.60;98.00;;;;;;5073749;28;20464;-67
2023/03/08 06:10:34;;;;;;;5.17;2.37;;;4.70;98.00;;;;;;5073637;28;20457;-67
2023/03/08 06:13:02;;;;;;;3.10;2.07;;;4.80;98.00;;;;;;5072891;28;20788;-67
2023/03/08 06:15:29;;;;;;;3.83;2.10;;;4.80;98.00;;;;;;5073527;28;20625;-67
2023/03/08 06:17:57;;;;;;;3.90;2.83;;;4.90;98.00;;;;;;5073728;28;20458;-66
2023/03/08 06:20:25;;;;;;;2.00;1.90;;;5.00;98.00;;;;;;5072553;28;20857;-67
2023/03/08 06:22:53;;;;;;;5.27;2.70;;;5.00;98.00;;;;;;5073803;28;20452;-67
2023/03/08 06:25:22;;;;;;;5.10;2.40;;;5.10;98.00;;;;;;5073591;28;20461;-67
2023/03/08 06:27:49;;;;;;;3.63;2.10;;;5.00;98.00;;;;;;5073488;28;20469;-67
2023/03/08 06:30:17;;;;;;;6.00;3.10;;;4.90;98.00;;;;;;5074015;28;20457;-67
2023/03/08 06:32:44;;;;;;;4.37;2.60;;;5.00;98.00;;;;;;5071610;28;20490;-67
2023/03/08 06:35:12;;;;;;;5.07;2.87;;;4.90;98.00;;;;;;5073267;28;20454;-67
2023/03/08 06:37:39;;;;;;;3.43;2.30;;;4.90;98.00;;;;;;5073351;28;20459;-66
2023/03/08 06:40:13;;;;;;;2.73;2.00;;;4.80;98.00;;;;;;5073356;28;20453;-66
2023/03/08 06:42:41;;;;;;;4.90;2.10;;;4.80;98.00;;;;;;5073149;28;20464;-66
2023/03/08 06:45:10;;;;;;;6.73;2.30;;;4.80;98.00;;;;;;5073303;28;20867;-67
2023/03/08 06:47:37;;;;;;;5.43;2.70;;;4.80;98.00;;;;;;5073555;28;20541;-66
2023/03/08 06:50:04;;;;;;;1.67;1.60;;;4.90;98.00;;;;;;5073318;28;20518;-67
2023/03/08 06:52:36;;;;;;;4.53;2.27;;;4.90;98.00;;;;;;5073276;28;20484;-67
2023/03/08 06:55:03;;;;;;;3.10;2.17;;;4.80;98.00;;;;;;5073301;28;20629;-66
2023/03/08 06:57:31;;;;;;;4.40;2.10;;;4.80;98.00;;;;;;5071566;28;20484;-66
2023/03/08 07:00:00;;;;;;;8.23;3.73;;;4.80;98.00;;;;;;5072967;28;20458;-67
2023/03/08 07:02:28;;;;;;;4.30;2.57;;;4.90;98.00;;;;;;5072973;28;20493;-64
2023/03/08 07:04:56;;;;;;;4.53;2.70;;;4.90;98.00;;;;;;5072731;28;20462;-63
2023/03/08 07:07:23;;;;;;;3.80;2.67;;;4.90;98.00;;;;;;5072819;28;20474;-62
2023/03/08 07:09:50;;;;;;;5.53;2.77;;;5.00;98.00;;;;;;5072652;28;20453;-64
2023/03/08 07:12:17;;;;;;;3.80;2.30;;;5.00;98.00;;;;;;5072620;28;20493;-63
2023/03/08 07:14:44;;;;;;;6.20;3.17;;;5.20;98.00;;;;;;5072586;28;20466;-62
2023/03/08 07:17:14;;;;;;;10.80;2.40;;;5.20;98.00;;;;;;5072440;28;20524;-64
2023/03/08 07:19:41;;;;;;;8.93;1.93;;;5.30;98.00;;;;;;5072449;28;20454;-63
2023/03/08 07:22:09;;;;;;;5.47;3.30;;;5.40;98.00;;;;;;5072426;28;20453;-64
2023/03/08 07:24:38;;;;;;;4.07;2.57;;;5.50;98.00;;;;;;5072298;28;20453;-63
2023/03/08 07:27:06;;;;;;;3.23;2.00;;;5.50;98.00;;;;;;5071207;28;20455;-63
2023/03/08 07:29:33;;;;;;;6.50;3.30;;;5.60;98.00;;;;;;5072045;28;20465;-63
2023/03/08 07:32:00;;;;;;;11.83;3.30;;;5.70;98.00;;;;;;5072289;28;20487;-63
2023/03/08 07:34:28;;;;;;;2.20;1.77;;;5.70;98.00;;;;;;5072429;28;20731;-63
2023/03/08 07:36:57;;;;;;;4.10;2.67;;;5.90;98.00;;;;;;5072155;28;20456;-64
2023/03/08 07:39:24;;;;;;;5.27;2.83;;;5.80;98.00;;;;;;5070899;28;20468;-62
2023/03/08 07:41:51;;;;;;;6.00;3.20;;;5.70;98.00;;;;;;5072129;28;20455;-63
2023/03/08 07:44:18;;;;;;;4.20;2.57;;;5.70;98.00;;;;;;5069944;28;20463;-63
2023/03/08 07:46:46;;;;;;;5.57;2.73;;;5.80;98.00;;;;;;5071980;28;20832;-63
2023/03/08 07:49:15;;;;;;;4.30;2.60;;;5.70;98.00;;;;;;5072278;28;20498;-63
2023/03/08 07:51:43;;;;;;;5.77;3.10;;;5.80;98.00;;;;;;5070851;28;20462;-63
2023/03/08 07:54:11;;;;;;;3.93;2.40;;;5.90;98.00;;;;;;5071915;28;20947;-63
2023/03/08 07:56:38;;;;;;;4.70;2.50;;;6.00;98.00;;;;;;5070661;28;20460;-64
2023/03/08 07:59:06;;;;;;;5.47;2.90;;;5.90;98.00;;;;;;5071639;28;20970;-62
2023/03/08 08:01:33;;;;;;;3.93;2.60;;;5.70;98.00;;;;;;5071866;28;20461;-63
2023/03/08 08:04:00;;;;;;;4.07;2.80;;;5.60;98.00;;;;;;5071564;28;20827;-63
2023/03/08 08:06:29;;;;;;;5.30;2.60;;;5.70;98.00;;;;;;5071576;28;20469;-62
2023/03/08 08:08:57;;;;;;;3.63;2.10;;;5.60;98.00;;;;;;5070118;28;21024;-63
2023/03/08 08:11:25;;;;;;;5.63;3.53;;;5.60;98.00;;;;;;5071703;28;20450;-63
2023/03/08 08:13:53;;;;;;;6.53;3.40;;;5.50;98.00;;;;;;5071404;28;20484;-64
2023/03/08 08:16:21;;;;;;;2.77;2.00;;;5.50;98.00;;;;;;5071382;28;20465;-64
2023/03/08 08:18:51;;;;;;;5.63;3.30;;;5.50;98.00;;;;;;5071214;28;20500;-64
2023/03/08 08:21:22;;;;;;;4.60;2.93;;;5.50;98.00;;;;;;5071375;28;20462;-64
2023/03/08 08:23:49;;;;;;;8.43;3.27;;;5.60;98.00;;;;;;5071502;28;20456;-63
2023/03/08 08:26:20;;;;;;;4.23;2.80;;;5.50;98.00;;;;;;5071359;28;21025;-63
2023/03/08 08:28:50;;;;;;;6.43;3.03;;;5.60;98.00;;;;;;5071456;28;20506;-63
2023/03/08 08:31:20;;;;;;;6.73;3.50;;;5.70;98.00;;;;;;5071437;28;20456;-63
2023/03/08 08:33:47;;;;;;;3.20;2.07;;;5.70;98.00;;;;;;5071276;28;20538;-63
2023/03/08 08:36:17;;;;;;;5.53;2.30;;;5.80;98.00;;;;;;5071734;28;20456;-63
2023/03/08 08:38:44;;;;;;;7.80;3.90;;;5.80;98.00;;;;;;5071408;28;20459;-63
2023/03/08 08:41:14;;;;;;;8.87;3.30;;;5.70;98.00;;;;;;5071427;28;20456;-62
2023/03/08 08:43:43;;;;;;;5.97;3.30;;;5.70;98.00;;;;;;5083974;28;20509;-63
2023/03/08 08:46:11;;;;;;;6.27;3.47;;;5.70;98.00;;;;;;5091644;28;20856;-63
2023/03/08 08:48:40;;;;;;;6.50;4.07;;;5.70;98.00;;;;;;5091040;28;20453;-63
2023/03/08 08:51:09;;;;;;;6.00;4.23;;;5.60;98.00;;;;;;5086061;28;20474;-64
2023/03/08 08:53:36;;;;;;;6.73;3.20;;;5.60;98.00;;;;;;5091283;28;20525;-62
2023/03/08 08:56:11;;;;;;;12.43;3.93;;;5.50;98.00;;;;;;5095352;28;20527;-63
2023/03/08 08:58:38;;;;;;;3.97;2.73;;;5.60;98.00;;;;;;5095990;28;20998;-63
2023/03/08 09:01:13;;;;;;;6.33;3.20;;;5.60;98.00;;;;;;5078041;28;20474;-65
2023/03/08 09:03:40;;;;;;;5.97;3.30;;;5.60;98.00;;;;;;5095583;28;20462;-62
2023/03/08 09:06:08;;;;;;;6.57;3.43;;;5.60;98.00;;;;;;5078035;28;20481;-63
2023/03/08 09:08:35;;;;;;;12.23;2.50;;;5.60;98.00;;;;;;5094406;28;20471;-63
2023/03/08 09:11:06;;;;;;;6.80;4.00;;;5.60;98.00;;;;;;5087520;28;20524;-64
2023/03/08 09:13:34;;;;;;;4.87;2.50;;;5.60;98.00;;;;;;5075567;28;20495;-65
2023/03/08 09:16:01;;;;;;;2.10;1.63;;;5.70;98.00;;;;;;5075341;28;20469;-65
2023/03/08 09:18:30;;;;;;;3.63;2.47;;;7.00;98.00;;;;;;5075507;28;20458;-65
2023/03/08 09:20:57;;;;;;;3.70;2.13;;;8.10;98.00;;;;;;5057545;28;20481;-65
2023/03/08 09:23:24;;;;;;;5.77;2.80;;;9.00;98.00;;;;;;5075436;28;20456;-64
2023/03/08 09:25:56;;;;;;;10.03;4.27;;;9.80;98.00;;;;;;5057554;28;20953;-64
2023/03/08 09:28:24;;;;;;;7.57;3.90;;;10.30;98.00;;;;;;5075226;28;20461;-63
2023/03/08 09:30:52;;;;;;;9.93;3.50;;;10.20;98.00;;;;;;5057577;28;20457;-63
2023/03/08 09:33:19;;;;;;;9.07;4.50;;;9.80;98.00;;;;;;5074899;28;20563;-62
2023/03/08 09:35:57;;;;;;;9.33;4.17;;;9.20;98.00;;;;;;5074986;28;20455;-64
2023/03/08 09:38:25;;;;;;;10.03;4.20;;;8.60;98.00;;;;;;5075140;28;21063;-62
2023/03/08 09:41:05;;;;;;;7.80;4.13;;;8.20;98.00;;;;;;5075041;28;20542;-62
2023/03/08 09:43:43;;;;;;;9.00;3.93;;;7.80;98.00;;;;;;5075161;28;20460;-63
2023/03/08 09:46:15;;;;;;;8.03;4.17;;;7.60;98.00;;;;;;5075092;28;20468;-64
2023/03/08 09:48:46;;;;;;;7.37;3.40;;;7.30;98.00;;;;;;5074168;28;20552;-63
2023/03/08 09:51:18;;;;;;;7.90;3.50;;;7.20;98.00;;;;;;5074395;28;20459;-62
2023/03/08 09:53:53;;;;;;;5.00;2.93;;;7.10;98.00;;;;;;5074265;28;20514;-63
2023/03/08 09:56:26;;;;;;;7.70;3.87;;;7.20;98.00;;;;;;5056114;28;20469;-63
2023/03/08 09:58:58;;;;;;;7.43;4.20;;;7.10;98.00;;;;;;5074432;28;21071;-64
2023/03/08 10:01:37;;;;;;;9.37;3.70;;;7.00;98.00;;;;;;5074309;28;20449;-63
2023/03/08 10:04:28;;;;;;;8.53;3.83;;;6.80;98.00;;;;;;5073826;28;20457;-63
2023/03/08 10:07:23;;;;;;;7.23;3.57;;;6.80;98.00;;;;;;5073419;28;20555;-64
2023/03/08 10:10:02;;;;;;;11.40;3.00;;;6.70;98.00;;;;;;5068886;28;20467;-64
2023/03/08 10:12:37;;;;;;;8.77;4.50;;;6.80;98.00;;;;;;5074093;28;21002;-63
2023/03/08 10:15:09;;;;;;;10.07;4.17;;;6.90;98.00;;;;;;5073992;28;21026;-63
2023/03/08 10:17:43;;;;;;;6.10;3.50;;;6.90;98.00;;;;;;5073972;28;20802;-63
2023/03/08 10:20:19;;;;;;;6.50;3.47;;;7.00;98.00;;;;;;5074001;28;20940;-63
2023/03/08 10:22:53;;;;;;;8.83;3.67;;;7.10;98.00;;;;;;5073949;28;20948;-63
2023/03/08 10:25:23;;;;;;;7.70;3.90;;;7.10;98.00;;;;;;5074285;28;20474;-63
2023/03/08 10:27:54;;;;;;;8.80;3.70;;;7.20;98.00;;;;;;5073870;28;20457;-64
2023/03/08 10:30:25;;;;;;;6.73;3.43;;;7.10;98.00;;;;;;5073916;28;20777;-63
2023/03/08 10:32:57;;;;;;;5.30;3.50;;;7.10;98.00;;;;;;5055784;28;20560;-63
2023/03/08 10:35:53;;;;;;;4.90;3.30;;;7.20;98.00;;;;;;5056498;28;21000;-62
2023/03/08 10:38:22;;;;;;;4.63;3.17;;;7.20;98.00;;;;;;5073527;28;20451;-63
2023/03/08 10:40:50;;;;;;;7.43;3.20;;;7.20;98.00;;;;;;5073078;28;20463;-63
2023/03/08 10:43:27;;;;;;;6.23;3.97;;;7.30;98.00;;;;;;5073069;28;20453;-63
2023/03/08 10:46:05;;;;;;;5.13;2.87;;;7.40;98.00;;;;;;5055959;28;20462;-63
2023/03/08 10:48:32;;;;;;;3.63;2.33;;;7.40;98.00;;;;;;5073070;28;20458;-62
2023/03/08 10:51:01;;;;;;;6.97;3.20;;;7.60;98.00;;;;;;5072943;28;20962;-62
2023/03/08 10:53:31;;;;;;;6.30;2.40;;;7.80;98.00;;;;;;5073691;28;20491;-62
2023/03/08 10:55:59;;;;;;;1.90;1.73;;;7.90;98.00;;;;;;5072987;28;20520;-62
2023/03/08 10:58:33;;;;;;;4.60;2.63;;;8.00;98.00;;;;;;5072743;28;20460;-62
2023/03/08 11:01:03;;;;;;;8.40;2.30;;;8.10;98.00;;;;;;5072668;28;20483;-62
2023/03/08 11:03:32;;;;;;;4.43;2.07;;;8.30;98.00;;;;;;5072781;28;20459;-63
2023/03/08 11:06:00;;;;;;;3.70;1.70;;;8.50;98.00;;;;;;5072580;28;20456;-62
2023/03/08 11:08:32;;;;;;;4.03;2.00;;;8.70;98.00;;;;;;5072730;28;20828;-63
2023/03/08 11:11:07;;;;;;;3.40;2.03;;;8.90;98.00;;;;;;5072393;28;20464;-63
2023/03/08 11:13:37;;;;;;;2.60;1.70;;;9.10;98.00;;;;;;5072565;28;20484;-63
2023/03/08 11:16:35;;;;;;;3.93;2.37;;;9.20;98.00;;;;;;5072475;28;20587;-63
2023/03/08 11:19:09;;;;;;;4.23;2.30;;;9.40;98.00;;;;;;5056796;28;20521;-63
2023/03/08 11:21:50;;;;;;;5.00;2.50;;;9.50;98.00;;;;;;5071861;28;20456;-62
2023/03/08 11:24:29;;;;;;;2.67;1.50;;;9.70;98.00;;;;;;5072482;28;20554;-63
2023/03/08 11:27:11;;;;;;;2.70;1.80;;;9.80;98.00;;;;;;5072143;28;20522;-62
2023/03/08 11:29:49;;;;;;;3.47;2.00;;;9.90;98.00;;;;;;5072463;28;20464;-62
2023/03/08 11:32:33;;;;;;;4.60;2.20;;;10.10;98.00;;;;;;5072268;28;20965;-63
2023/03/08 11:35:13;;;;;;;4.60;2.17;;;10.20;98.00;;;;;;5072217;28;20554;-63
2023/03/08 11:37:47;;;;;;;2.30;1.80;;;10.30;98.00;;;;;;5072117;28;20453;-62
2023/03/08 11:40:26;;;;;;;2.90;1.70;;;10.30;98.00;;;;;;5072021;28;20452;-62
2023/03/08 11:43:13;;;;;;;2.77;1.63;;;10.30;98.00;;;;;;5071901;28;20880;-62
2023/03/08 11:45:47;;;;;;;1.73;1.43;;;10.30;98.00;;;;;;5071777;28;20511;-63
2023/03/08 11:48:33;;;;;;;2.63;1.77;;;10.30;98.00;;;;;;5072044;28;20467;-63
2023/03/08 11:51:06;;;;;;;2.27;1.40;;;10.30;98.00;;;;;;5071769;28;20445;-63
2023/03/08 11:53:45;;;;;;;1.53;1.33;;;10.30;98.00;;;;;;5071609;28;20491;-62
2023/03/08 11:56:29;;;;;;;1.87;1.50;;;10.40;98.00;;;;;;5071622;28;20830;-63
2023/03/08 11:59:02;;;;;;;3.00;1.70;;;10.40;98.00;;;;;;5071892;28;20456;-62
2023/03/08 12:01:36;;;;;;;1.83;1.40;;;10.50;98.00;;;;;;5071680;28;20989;-63
2023/03/08 12:04:11;;;;;;;2.53;1.60;;;10.60;98.00;;;;;;5071819;28;20985;-63
2023/03/08 12:06:41;;;;;;;1.40;1.20;;;10.70;98.00;;;;;;5070182;28;20794;-62
2023/03/08 12:09:21;;;;;;;1.40;1.00;;;10.80;98.00;;;;;;5071344;28;20975;-63
2023/03/08 12:11:54;;;;;;;1.57;1.17;;;10.90;98.00;;;;;;5071513;28;20497;-63
2023/03/08 12:14:29;;;;;;;1.80;1.20;;;10.90;98.00;;;;;;5071217;28;21026;-63
2023/03/08 12:17:04;;;;;;;1.97;1.30;;;11.00;98.00;;;;;;5070201;28;20495;-63
2023/03/08 12:19:41;;;;;;;1.30;1.10;;;11.10;98.00;;;;;;5071421;28;20469;-63
2023/03/08 12:22:29;;;;;;;1.23;1.10;;;11.20;98.00;;;;;;5071501;28;20551;-63
2023/03/08 12:25:04;;;;;;;3.20;1.30;;;11.30;98.00;;;;;;5071340;28;20455;-62
2023/03/08 12:27:40;;;;;;;1.30;1.10;;;11.30;98.00;;;;;;5071056;28;20454;-62
2023/03/08 12:30:17;;;;;;;1.40;1.13;;;11.50;98.00;;;;;;5071031;28;20458;-63
2023/03/08 12:32:47;;;;;;;1.50;1.20;;;11.50;98.00;;;;;;5071503;28;20457;-62
2023/03/08 12:35:29;;;;;;;1.20;1.00;;;11.60;98.00;;;;;;5071140;28;20489;-62
2023/03/08 12:37:58;;;;;;;1.43;1.20;;;11.70;98.00;;;;;;5071395;28;20463;-63
2023/03/08 12:40:30;;;;;;;1.30;1.10;;;11.80;98.00;;;;;;5071035;28;20964;-62
2023/03/08 12:43:07;;;;;;;1.50;1.33;;;11.80;98.00;;;;;;5071268;28;20515;-63
2023/03/08 12:45:35;;;;;;;1.37;1.17;;;11.90;98.00;;;;;;5070898;28;20465;-62
2023/03/08 12:48:16;;;;;;;1.20;1.10;;;11.90;98.00;;;;;;5071105;28;20469;-63
2023/03/08 12:50:57;;;;;;;1.50;1.10;;;11.90;98.00;;;;;;5070275;28;20471;-63
2023/03/08 12:53:30;;;;;;;1.50;1.20;;;12.00;98.00;;;;;;5070950;28;20486;-63
2023/03/08 12:56:07;;;;;;;1.30;1.30;;;11.90;98.00;;;;;;5069876;28;20813;-62
2023/03/08 12:58:48;;;;;;;1.40;1.07;;;12.00;98.00;;;;;;5070812;28;20459;-62
2023/03/08 13:01:28;;;;;;;1.20;1.00;;;12.00;98.00;;;;;;5070836;28;20971;-63
2023/03/08 13:03:58;;;;;;;1.30;1.10;;;12.10;98.00;;;;;;5070916;28;20454;-63
2023/03/08 13:06:52;;;;;;;1.30;1.20;;;12.10;98.00;;;;;;5070695;28;20457;-63
2023/03/08 13:09:24;;;;;;;2.30;1.27;;;12.20;98.00;;;;;;5070690;28;20467;-63
2023/03/08 13:11:58;;;;;;;1.40;1.17;;;12.30;98.00;;;;;;5070804;28;20465;-62